sensor_id;sensor_type;location;lat;lon;timestamp;P1;durP1;ratioP1;P2;durP2;ratioP2
72422;SDS011;71399;54.146;38.734;2023-07-16T00:00:04;12.48;;;8.57;;
72422;SDS011;71399;54.146;38.734;2023-07-16T00:02:32;15.10;;;9.32;;
72422;SDS011;71399;54.146;38.734;2023-07-16T00:04:58;16.98;;;9.00;;
72422;SDS011;71399;54.146;38.734;2023-07-16T00:07:24;14.93;;;8.90;;
72422;SDS011;71399;54.146;38.734;2023-07-16T00:09:50;16.30;;;9.23;;
72422;SDS011;71399;54.146;38.734;2023-07-16T00:12:16;16.08;;;9.32;;
72422;SDS011;71399;54.146;38.734;2023-07-16T00:14:42;17.92;;;9.90;;
72422;SDS011;71399;54.146;38.734;2023-07-16T00:17:09;17.00;;;10.05;;
72422;SDS011;71399;54.146;38.734;2023-07-16T00:19:35;15.10;;;9.57;;
72422;SDS011;71399;54.146;38.734;2023-07-16T00:22:01;15.30;;;9.23;;
72422;SDS011;71399;54.146;38.734;2023-07-16T00:24:27;15.95;;;9.23;;
72422;SDS011;71399;54.146;38.734;2023-07-16T00:26:53;14.95;;;9.13;;
72422;SDS011;71399;54.146;38.734;2023-07-16T00:29:19;16.27;;;10.20;;
72422;SDS011;71399;54.146;38.734;2023-07-16T00:31:45;17.63;;;10.45;;
72422;SDS011;71399;54.146;38.734;2023-07-16T00:34:12;15.48;;;10.15;;
72422;SDS011;71399;54.146;38.734;2023-07-16T00:36:40;20.00;;;10.05;;
72422;SDS011;71399;54.146;38.734;2023-07-16T00:39:06;16.80;;;10.18;;
72422;SDS011;71399;54.146;38.734;2023-07-16T00:41:33;18.05;;;9.82;;
72422;SDS011;71399;54.146;38.734;2023-07-16T00:43:59;20.08;;;11.07;;
72422;SDS011;71399;54.146;38.734;2023-07-16T00:46:25;21.95;;;10.93;;
72422;SDS011;71399;54.146;38.734;2023-07-16T00:48:52;20.27;;;10.25;;
72422;SDS011;71399;54.146;38.734;2023-07-16T00:51:18;21.30;;;11.18;;
72422;SDS011;71399;54.146;38.734;2023-07-16T00:53:47;19.65;;;11.15;;
72422;SDS011;71399;54.146;38.734;2023-07-16T00:56:15;24.08;;;11.63;;
72422;SDS011;71399;54.146;38.734;2023-07-16T00:58:44;21.00;;;11.40;;
72422;SDS011;71399;54.146;38.734;2023-07-16T01:01:10;17.30;;;11.30;;
72422;SDS011;71399;54.146;38.734;2023-07-16T01:03:37;21.30;;;10.90;;
72422;SDS011;71399;54.146;38.734;2023-07-16T01:08:46;21.05;;;12.60;;
72422;SDS011;71399;54.146;38.734;2023-07-16T01:11:15;18.00;;;11.75;;
72422;SDS011;71399;54.146;38.734;2023-07-16T01:13:41;22.35;;;11.55;;
72422;SDS011;71399;54.146;38.734;2023-07-16T01:16:21;22.75;;;12.80;;
72422;SDS011;71399;54.146;38.734;2023-07-16T01:18:50;18.60;;;12.45;;
72422;SDS011;71399;54.146;38.734;2023-07-16T01:21:18;24.27;;;12.77;;
72422;SDS011;71399;54.146;38.734;2023-07-16T01:23:59;24.45;;;12.80;;
72422;SDS011;71399;54.146;38.734;2023-07-16T01:26:59;21.63;;;12.70;;
72422;SDS011;71399;54.146;38.734;2023-07-16T01:32:17;23.70;;;12.48;;
72422;SDS011;71399;54.146;38.734;2023-07-16T01:34:43;19.67;;;12.48;;
72422;SDS011;71399;54.146;38.734;2023-07-16T01:37:10;21.25;;;12.38;;
72422;SDS011;71399;54.146;38.734;2023-07-16T01:39:37;21.58;;;11.82;;
72422;SDS011;71399;54.146;38.734;2023-07-16T01:42:03;25.17;;;12.82;;
72422;SDS011;71399;54.146;38.734;2023-07-16T01:44:30;22.08;;;11.80;;
72422;SDS011;71399;54.146;38.734;2023-07-16T01:47:15;20.23;;;12.35;;
72422;SDS011;71399;54.146;38.734;2023-07-16T01:49:45;22.77;;;13.20;;
72422;SDS011;71399;54.146;38.734;2023-07-16T01:52:13;21.77;;;11.73;;
72422;SDS011;71399;54.146;38.734;2023-07-16T01:54:39;23.85;;;12.85;;
72422;SDS011;71399;54.146;38.734;2023-07-16T01:57:06;25.85;;;13.93;;
72422;SDS011;71399;54.146;38.734;2023-07-16T01:59:32;25.00;;;13.18;;
72422;SDS011;71399;54.146;38.734;2023-07-16T02:01:58;21.33;;;11.82;;
72422;SDS011;71399;54.146;38.734;2023-07-16T02:04:25;23.95;;;12.80;;
72422;SDS011;71399;54.146;38.734;2023-07-16T02:06:51;31.05;;;13.35;;
72422;SDS011;71399;54.146;38.734;2023-07-16T02:09:20;22.50;;;13.18;;
72422;SDS011;71399;54.146;38.734;2023-07-16T02:11:47;18.83;;;12.38;;
72422;SDS011;71399;54.146;38.734;2023-07-16T02:14:13;24.02;;;12.68;;
72422;SDS011;71399;54.146;38.734;2023-07-16T02:16:40;21.50;;;11.75;;
72422;SDS011;71399;54.146;38.734;2023-07-16T02:19:06;25.67;;;12.60;;
72422;SDS011;71399;54.146;38.734;2023-07-16T02:21:34;19.85;;;11.98;;
72422;SDS011;71399;54.146;38.734;2023-07-16T02:24:00;19.80;;;11.27;;
72422;SDS011;71399;54.146;38.734;2023-07-16T02:26:26;22.73;;;11.57;;
72422;SDS011;71399;54.146;38.734;2023-07-16T02:28:52;18.33;;;11.25;;
72422;SDS011;71399;54.146;38.734;2023-07-16T02:31:21;18.80;;;11.43;;
72422;SDS011;71399;54.146;38.734;2023-07-16T02:33:47;17.42;;;10.45;;
72422;SDS011;71399;54.146;38.734;2023-07-16T02:36:13;22.15;;;11.45;;
72422;SDS011;71399;54.146;38.734;2023-07-16T02:38:41;19.98;;;11.88;;
72422;SDS011;71399;54.146;38.734;2023-07-16T02:41:07;20.40;;;11.30;;
72422;SDS011;71399;54.146;38.734;2023-07-16T02:43:33;19.13;;;11.52;;
72422;SDS011;71399;54.146;38.734;2023-07-16T02:45:59;24.85;;;11.98;;
72422;SDS011;71399;54.146;38.734;2023-07-16T02:48:28;17.95;;;11.13;;
72422;SDS011;71399;54.146;38.734;2023-07-16T02:50:54;18.52;;;10.93;;
72422;SDS011;71399;54.146;38.734;2023-07-16T02:53:20;21.17;;;11.07;;
72422;SDS011;71399;54.146;38.734;2023-07-16T02:55:46;18.98;;;10.73;;
72422;SDS011;71399;54.146;38.734;2023-07-16T02:58:12;17.23;;;10.55;;
72422;SDS011;71399;54.146;38.734;2023-07-16T03:00:39;18.55;;;10.90;;
72422;SDS011;71399;54.146;38.734;2023-07-16T03:03:05;14.40;;;9.73;;
72422;SDS011;71399;54.146;38.734;2023-07-16T03:05:31;15.73;;;9.55;;
72422;SDS011;71399;54.146;38.734;2023-07-16T03:07:57;14.38;;;9.90;;
72422;SDS011;71399;54.146;38.734;2023-07-16T03:10:24;17.10;;;9.52;;
72422;SDS011;71399;54.146;38.734;2023-07-16T03:12:53;18.63;;;9.63;;
72422;SDS011;71399;54.146;38.734;2023-07-16T03:15:19;20.83;;;11.05;;
72422;SDS011;71399;54.146;38.734;2023-07-16T03:17:46;26.30;;;11.10;;
72422;SDS011;71399;54.146;38.734;2023-07-16T03:20:12;18.23;;;10.70;;
72422;SDS011;71399;54.146;38.734;2023-07-16T03:22:38;19.60;;;10.05;;
72422;SDS011;71399;54.146;38.734;2023-07-16T03:25:05;17.23;;;10.38;;
72422;SDS011;71399;54.146;38.734;2023-07-16T03:27:32;18.65;;;10.65;;
72422;SDS011;71399;54.146;38.734;2023-07-16T03:30:00;20.70;;;11.32;;
72422;SDS011;71399;54.146;38.734;2023-07-16T03:32:29;17.95;;;9.80;;
72422;SDS011;71399;54.146;38.734;2023-07-16T03:34:55;16.05;;;9.32;;
72422;SDS011;71399;54.146;38.734;2023-07-16T03:37:24;15.77;;;10.70;;
72422;SDS011;71399;54.146;38.734;2023-07-16T03:39:50;15.65;;;9.93;;
72422;SDS011;71399;54.146;38.734;2023-07-16T03:42:17;16.83;;;9.77;;
72422;SDS011;71399;54.146;38.734;2023-07-16T03:44:43;13.75;;;9.30;;
72422;SDS011;71399;54.146;38.734;2023-07-16T03:47:10;14.98;;;9.40;;
72422;SDS011;71399;54.146;38.734;2023-07-16T03:49:37;14.10;;;8.73;;
72422;SDS011;71399;54.146;38.734;2023-07-16T03:52:03;14.52;;;8.75;;
72422;SDS011;71399;54.146;38.734;2023-07-16T03:54:29;12.85;;;8.13;;
72422;SDS011;71399;54.146;38.734;2023-07-16T03:56:55;13.25;;;8.02;;
72422;SDS011;71399;54.146;38.734;2023-07-16T03:59:23;15.68;;;8.05;;
72422;SDS011;71399;54.146;38.734;2023-07-16T04:01:50;12.10;;;7.57;;
72422;SDS011;71399;54.146;38.734;2023-07-16T04:04:16;13.13;;;6.82;;
72422;SDS011;71399;54.146;38.734;2023-07-16T04:06:42;14.68;;;7.15;;
72422;SDS011;71399;54.146;38.734;2023-07-16T04:09:08;12.52;;;6.00;;
72422;SDS011;71399;54.146;38.734;2023-07-16T04:11:34;8.90;;;6.25;;
72422;SDS011;71399;54.146;38.734;2023-07-16T04:14:00;13.55;;;5.93;;
72422;SDS011;71399;54.146;38.734;2023-07-16T04:16:26;9.23;;;5.68;;
72422;SDS011;71399;54.146;38.734;2023-07-16T04:18:52;8.00;;;5.35;;
72422;SDS011;71399;54.146;38.734;2023-07-16T04:21:18;10.35;;;5.55;;
72422;SDS011;71399;54.146;38.734;2023-07-16T04:23:45;11.98;;;5.60;;
72422;SDS011;71399;54.146;38.734;2023-07-16T04:26:11;11.32;;;5.47;;
72422;SDS011;71399;54.146;38.734;2023-07-16T04:28:37;10.45;;;5.28;;
72422;SDS011;71399;54.146;38.734;2023-07-16T04:31:04;10.57;;;5.55;;
72422;SDS011;71399;54.146;38.734;2023-07-16T04:33:30;14.15;;;5.70;;
72422;SDS011;71399;54.146;38.734;2023-07-16T04:35:57;9.68;;;5.43;;
72422;SDS011;71399;54.146;38.734;2023-07-16T04:38:23;7.53;;;5.20;;
72422;SDS011;71399;54.146;38.734;2023-07-16T04:40:49;10.63;;;5.75;;
72422;SDS011;71399;54.146;38.734;2023-07-16T04:43:15;9.30;;;5.82;;
72422;SDS011;71399;54.146;38.734;2023-07-16T04:45:42;13.98;;;6.18;;
72422;SDS011;71399;54.146;38.734;2023-07-16T04:48:12;8.00;;;5.05;;
72422;SDS011;71399;54.146;38.734;2023-07-16T04:50:39;12.18;;;5.43;;
72422;SDS011;71399;54.146;38.734;2023-07-16T04:53:05;7.47;;;5.18;;
72422;SDS011;71399;54.146;38.734;2023-07-16T04:55:37;10.02;;;5.75;;
72422;SDS011;71399;54.146;38.734;2023-07-16T04:58:05;9.27;;;5.17;;
72422;SDS011;71399;54.146;38.734;2023-07-16T05:00:31;10.85;;;5.65;;
72422;SDS011;71399;54.146;38.734;2023-07-16T05:02:58;10.20;;;5.43;;
72422;SDS011;71399;54.146;38.734;2023-07-16T05:05:24;9.15;;;6.03;;
72422;SDS011;71399;54.146;38.734;2023-07-16T05:07:50;11.00;;;5.20;;
72422;SDS011;71399;54.146;38.734;2023-07-16T05:10:17;7.35;;;5.18;;
72422;SDS011;71399;54.146;38.734;2023-07-16T05:12:45;10.90;;;5.78;;
72422;SDS011;71399;54.146;38.734;2023-07-16T05:15:11;9.20;;;5.22;;
72422;SDS011;71399;54.146;38.734;2023-07-16T05:17:37;11.25;;;4.95;;
72422;SDS011;71399;54.146;38.734;2023-07-16T05:20:04;14.23;;;5.85;;
72422;SDS011;71399;54.146;38.734;2023-07-16T05:22:32;7.97;;;5.30;;
72422;SDS011;71399;54.146;38.734;2023-07-16T05:24:58;10.18;;;5.72;;
72422;SDS011;71399;54.146;38.734;2023-07-16T05:27:24;10.27;;;5.40;;
72422;SDS011;71399;54.146;38.734;2023-07-16T05:29:50;7.85;;;5.15;;
72422;SDS011;71399;54.146;38.734;2023-07-16T05:32:16;9.75;;;5.50;;
72422;SDS011;71399;54.146;38.734;2023-07-16T05:34:42;7.25;;;5.30;;
72422;SDS011;71399;54.146;38.734;2023-07-16T05:37:09;9.75;;;5.03;;
72422;SDS011;71399;54.146;38.734;2023-07-16T05:39:34;7.85;;;5.07;;
72422;SDS011;71399;54.146;38.734;2023-07-16T05:42:01;8.00;;;5.15;;
72422;SDS011;71399;54.146;38.734;2023-07-16T05:44:29;14.40;;;5.63;;
72422;SDS011;71399;54.146;38.734;2023-07-16T05:46:56;13.93;;;5.30;;
72422;SDS011;71399;54.146;38.734;2023-07-16T05:49:22;9.45;;;5.38;;
72422;SDS011;71399;54.146;38.734;2023-07-16T05:51:49;11.50;;;5.25;;
72422;SDS011;71399;54.146;38.734;2023-07-16T05:54:16;8.85;;;4.82;;
72422;SDS011;71399;54.146;38.734;2023-07-16T05:56:42;10.82;;;5.10;;
72422;SDS011;71399;54.146;38.734;2023-07-16T05:59:09;9.88;;;5.10;;
72422;SDS011;71399;54.146;38.734;2023-07-16T06:01:35;9.48;;;4.70;;
72422;SDS011;71399;54.146;38.734;2023-07-16T06:04:01;8.43;;;4.70;;
72422;SDS011;71399;54.146;38.734;2023-07-16T06:06:28;6.47;;;4.28;;
72422;SDS011;71399;54.146;38.734;2023-07-16T06:08:56;10.38;;;4.68;;
72422;SDS011;71399;54.146;38.734;2023-07-16T06:11:23;7.65;;;4.43;;
72422;SDS011;71399;54.146;38.734;2023-07-16T06:13:49;8.00;;;4.53;;
72422;SDS011;71399;54.146;38.734;2023-07-16T06:16:15;7.10;;;4.28;;
72422;SDS011;71399;54.146;38.734;2023-07-16T06:18:41;11.82;;;4.68;;
72422;SDS011;71399;54.146;38.734;2023-07-16T06:21:07;6.65;;;4.22;;
72422;SDS011;71399;54.146;38.734;2023-07-16T06:23:33;6.65;;;4.28;;
72422;SDS011;71399;54.146;38.734;2023-07-16T06:25:59;9.98;;;4.78;;
72422;SDS011;71399;54.146;38.734;2023-07-16T06:28:25;6.88;;;4.38;;
72422;SDS011;71399;54.146;38.734;2023-07-16T06:30:52;7.95;;;4.28;;
72422;SDS011;71399;54.146;38.734;2023-07-16T06:33:18;7.88;;;4.45;;
72422;SDS011;71399;54.146;38.734;2023-07-16T06:35:45;6.10;;;4.07;;
72422;SDS011;71399;54.146;38.734;2023-07-16T06:38:13;8.98;;;4.07;;
72422;SDS011;71399;54.146;38.734;2023-07-16T06:40:45;13.23;;;5.03;;
72422;SDS011;71399;54.146;38.734;2023-07-16T06:43:13;8.52;;;4.63;;
72422;SDS011;71399;54.146;38.734;2023-07-16T06:45:39;10.02;;;4.22;;
72422;SDS011;71399;54.146;38.734;2023-07-16T06:48:05;7.72;;;4.40;;
72422;SDS011;71399;54.146;38.734;2023-07-16T06:50:31;7.90;;;4.32;;
72422;SDS011;71399;54.146;38.734;2023-07-16T06:52:57;8.45;;;4.40;;
72422;SDS011;71399;54.146;38.734;2023-07-16T06:55:23;7.65;;;4.15;;
72422;SDS011;71399;54.146;38.734;2023-07-16T06:57:49;6.90;;;4.05;;
72422;SDS011;71399;54.146;38.734;2023-07-16T07:00:15;6.47;;;4.10;;
72422;SDS011;71399;54.146;38.734;2023-07-16T07:02:42;10.73;;;4.60;;
72422;SDS011;71399;54.146;38.734;2023-07-16T07:05:08;8.15;;;4.38;;
72422;SDS011;71399;54.146;38.734;2023-07-16T07:07:34;7.45;;;4.18;;
72422;SDS011;71399;54.146;38.734;2023-07-16T07:10:00;6.60;;;3.97;;
72422;SDS011;71399;54.146;38.734;2023-07-16T07:12:28;6.68;;;3.95;;
72422;SDS011;71399;54.146;38.734;2023-07-16T07:14:54;7.15;;;3.90;;
72422;SDS011;71399;54.146;38.734;2023-07-16T07:17:20;7.70;;;3.92;;
72422;SDS011;71399;54.146;38.734;2023-07-16T07:19:46;8.32;;;3.45;;
72422;SDS011;71399;54.146;38.734;2023-07-16T07:22:12;8.30;;;4.00;;
72422;SDS011;71399;54.146;38.734;2023-07-16T07:24:39;7.75;;;3.60;;
72422;SDS011;71399;54.146;38.734;2023-07-16T07:27:05;7.82;;;3.85;;
72422;SDS011;71399;54.146;38.734;2023-07-16T07:29:31;8.15;;;3.83;;
72422;SDS011;71399;54.146;38.734;2023-07-16T07:31:57;6.20;;;3.33;;
72422;SDS011;71399;54.146;38.734;2023-07-16T07:34:23;5.13;;;3.53;;
72422;SDS011;71399;54.146;38.734;2023-07-16T07:36:49;5.82;;;3.42;;
72422;SDS011;71399;54.146;38.734;2023-07-16T07:39:15;6.93;;;3.58;;
72422;SDS011;71399;54.146;38.734;2023-07-16T07:41:42;4.70;;;3.05;;
72422;SDS011;71399;54.146;38.734;2023-07-16T07:44:08;7.15;;;3.30;;
72422;SDS011;71399;54.146;38.734;2023-07-16T07:46:34;6.25;;;3.33;;
72422;SDS011;71399;54.146;38.734;2023-07-16T07:49:00;5.57;;;3.47;;
72422;SDS011;71399;54.146;38.734;2023-07-16T07:51:26;5.38;;;3.55;;
72422;SDS011;71399;54.146;38.734;2023-07-16T07:53:52;4.97;;;3.50;;
72422;SDS011;71399;54.146;38.734;2023-07-16T07:56:18;4.13;;;3.20;;
72422;SDS011;71399;54.146;38.734;2023-07-16T07:58:44;5.15;;;3.05;;
72422;SDS011;71399;54.146;38.734;2023-07-16T08:01:11;9.60;;;3.40;;
72422;SDS011;71399;54.146;38.734;2023-07-16T08:03:37;5.47;;;3.00;;
72422;SDS011;71399;54.146;38.734;2023-07-16T08:06:03;7.50;;;3.60;;
72422;SDS011;71399;54.146;38.734;2023-07-16T08:08:29;11.80;;;2.78;;
72422;SDS011;71399;54.146;38.734;2023-07-16T08:10:55;4.55;;;3.22;;
72422;SDS011;71399;54.146;38.734;2023-07-16T08:13:21;4.65;;;2.70;;
72422;SDS011;71399;54.146;38.734;2023-07-16T08:15:47;7.70;;;3.30;;
72422;SDS011;71399;54.146;38.734;2023-07-16T08:18:14;4.70;;;2.53;;
72422;SDS011;71399;54.146;38.734;2023-07-16T08:20:40;8.75;;;3.20;;
72422;SDS011;71399;54.146;38.734;2023-07-16T08:23:06;5.95;;;2.85;;
72422;SDS011;71399;54.146;38.734;2023-07-16T08:25:32;4.18;;;2.67;;
72422;SDS011;71399;54.146;38.734;2023-07-16T08:27:58;4.50;;;2.53;;
72422;SDS011;71399;54.146;38.734;2023-07-16T08:30:25;3.65;;;2.65;;
72422;SDS011;71399;54.146;38.734;2023-07-16T08:32:51;7.28;;;2.72;;
72422;SDS011;71399;54.146;38.734;2023-07-16T08:35:16;7.75;;;2.83;;
72422;SDS011;71399;54.146;38.734;2023-07-16T08:37:45;4.68;;;3.03;;
72422;SDS011;71399;54.146;38.734;2023-07-16T08:40:12;4.15;;;2.67;;
72422;SDS011;71399;54.146;38.734;2023-07-16T08:42:39;5.25;;;2.65;;
72422;SDS011;71399;54.146;38.734;2023-07-16T08:45:11;4.63;;;2.75;;
72422;SDS011;71399;54.146;38.734;2023-07-16T08:47:40;5.78;;;3.00;;
72422;SDS011;71399;54.146;38.734;2023-07-16T08:50:06;4.45;;;2.53;;
72422;SDS011;71399;54.146;38.734;2023-07-16T08:52:32;6.72;;;2.80;;
72422;SDS011;71399;54.146;38.734;2023-07-16T08:54:58;4.20;;;2.85;;
72422;SDS011;71399;54.146;38.734;2023-07-16T08:57:25;4.65;;;2.85;;
72422;SDS011;71399;54.146;38.734;2023-07-16T08:59:51;5.18;;;3.00;;
72422;SDS011;71399;54.146;38.734;2023-07-16T09:02:17;4.68;;;2.90;;
72422;SDS011;71399;54.146;38.734;2023-07-16T09:04:47;5.20;;;2.85;;
72422;SDS011;71399;54.146;38.734;2023-07-16T09:07:15;8.45;;;3.08;;
72422;SDS011;71399;54.146;38.734;2023-07-16T09:09:41;4.68;;;2.58;;
72422;SDS011;71399;54.146;38.734;2023-07-16T09:12:11;8.23;;;3.40;;
72422;SDS011;71399;54.146;38.734;2023-07-16T09:14:40;3.65;;;2.55;;
72422;SDS011;71399;54.146;38.734;2023-07-16T09:17:07;3.88;;;2.60;;
72422;SDS011;71399;54.146;38.734;2023-07-16T09:19:33;6.70;;;2.90;;
72422;SDS011;71399;54.146;38.734;2023-07-16T09:21:59;4.72;;;3.00;;
72422;SDS011;71399;54.146;38.734;2023-07-16T09:24:25;4.20;;;2.50;;
72422;SDS011;71399;54.146;38.734;2023-07-16T09:26:52;5.47;;;2.38;;
72422;SDS011;71399;54.146;38.734;2023-07-16T09:29:21;7.68;;;2.85;;
72422;SDS011;71399;54.146;38.734;2023-07-16T09:31:57;3.90;;;2.70;;
72422;SDS011;71399;54.146;38.734;2023-07-16T09:34:27;5.10;;;2.60;;
72422;SDS011;71399;54.146;38.734;2023-07-16T09:36:55;4.85;;;2.80;;
72422;SDS011;71399;54.146;38.734;2023-07-16T09:39:22;7.45;;;4.50;;
72422;SDS011;71399;54.146;38.734;2023-07-16T09:41:49;7.43;;;3.03;;
72422;SDS011;71399;54.146;38.734;2023-07-16T09:44:16;8.65;;;2.80;;
72422;SDS011;71399;54.146;38.734;2023-07-16T09:46:43;6.55;;;2.95;;
72422;SDS011;71399;54.146;38.734;2023-07-16T09:49:10;5.00;;;3.17;;
72422;SDS011;71399;54.146;38.734;2023-07-16T09:51:37;6.68;;;3.17;;
72422;SDS011;71399;54.146;38.734;2023-07-16T09:54:04;4.75;;;3.15;;
72422;SDS011;71399;54.146;38.734;2023-07-16T09:56:41;4.93;;;2.80;;
72422;SDS011;71399;54.146;38.734;2023-07-16T09:59:16;4.00;;;3.10;;
72422;SDS011;71399;54.146;38.734;2023-07-16T10:01:45;5.70;;;3.15;;
72422;SDS011;71399;54.146;38.734;2023-07-16T10:04:15;4.07;;;2.80;;
72422;SDS011;71399;54.146;38.734;2023-07-16T10:06:52;6.43;;;2.53;;
72422;SDS011;71399;54.146;38.734;2023-07-16T10:09:35;5.80;;;2.67;;
72422;SDS011;71399;54.146;38.734;2023-07-16T10:12:15;3.88;;;2.50;;
72422;SDS011;71399;54.146;38.734;2023-07-16T10:14:47;6.30;;;2.80;;
72422;SDS011;71399;54.146;38.734;2023-07-16T10:17:24;4.00;;;2.40;;
72422;SDS011;71399;54.146;38.734;2023-07-16T10:19:52;4.75;;;3.08;;
72422;SDS011;71399;54.146;38.734;2023-07-16T10:22:36;5.07;;;2.63;;
72422;SDS011;71399;54.146;38.734;2023-07-16T10:27:44;4.18;;;2.63;;
72422;SDS011;71399;54.146;38.734;2023-07-16T10:30:12;5.75;;;2.55;;
72422;SDS011;71399;54.146;38.734;2023-07-16T10:32:38;7.45;;;2.75;;
72422;SDS011;71399;54.146;38.734;2023-07-16T10:35:06;5.10;;;2.60;;
72422;SDS011;71399;54.146;38.734;2023-07-16T10:37:36;7.38;;;2.33;;
72422;SDS011;71399;54.146;38.734;2023-07-16T10:40:03;3.83;;;2.30;;
72422;SDS011;71399;54.146;38.734;2023-07-16T10:42:31;3.10;;;2.40;;
72422;SDS011;71399;54.146;38.734;2023-07-16T10:44:58;3.97;;;2.40;;
72422;SDS011;71399;54.146;38.734;2023-07-16T10:47:31;2.97;;;2.20;;
72422;SDS011;71399;54.146;38.734;2023-07-16T10:49:59;3.20;;;2.28;;
72422;SDS011;71399;54.146;38.734;2023-07-16T10:52:26;4.97;;;2.42;;
72422;SDS011;71399;54.146;38.734;2023-07-16T10:54:52;7.82;;;2.28;;
72422;SDS011;71399;54.146;38.734;2023-07-16T10:57:23;4.53;;;2.30;;
72422;SDS011;71399;54.146;38.734;2023-07-16T10:59:53;3.00;;;2.35;;
72422;SDS011;71399;54.146;38.734;2023-07-16T11:02:22;5.07;;;2.78;;
72422;SDS011;71399;54.146;38.734;2023-07-16T11:04:50;6.10;;;3.63;;
72422;SDS011;71399;54.146;38.734;2023-07-16T11:07:20;6.85;;;2.63;;
72422;SDS011;71399;54.146;38.734;2023-07-16T11:09:47;5.05;;;2.40;;
72422;SDS011;71399;54.146;38.734;2023-07-16T11:12:15;4.60;;;2.70;;
72422;SDS011;71399;54.146;38.734;2023-07-16T11:14:45;3.20;;;2.58;;
72422;SDS011;71399;54.146;38.734;2023-07-16T11:17:15;3.20;;;2.40;;
72422;SDS011;71399;54.146;38.734;2023-07-16T11:19:46;7.50;;;2.78;;
72422;SDS011;71399;54.146;38.734;2023-07-16T11:22:14;3.90;;;2.42;;
72422;SDS011;71399;54.146;38.734;2023-07-16T11:27:18;3.50;;;2.47;;
72422;SDS011;71399;54.146;38.734;2023-07-16T11:29:45;4.82;;;2.30;;
72422;SDS011;71399;54.146;38.734;2023-07-16T11:35:01;4.93;;;2.80;;
72422;SDS011;71399;54.146;38.734;2023-07-16T11:37:29;7.65;;;2.50;;
72422;SDS011;71399;54.146;38.734;2023-07-16T11:39:57;6.40;;;2.63;;
72422;SDS011;71399;54.146;38.734;2023-07-16T11:42:31;4.45;;;2.15;;
72422;SDS011;71399;54.146;38.734;2023-07-16T11:47:25;5.50;;;2.47;;
72422;SDS011;71399;54.146;38.734;2023-07-16T11:49:51;3.72;;;2.35;;
72422;SDS011;71399;54.146;38.734;2023-07-16T11:52:27;4.32;;;2.40;;
72422;SDS011;71399;54.146;38.734;2023-07-16T11:54:57;3.30;;;2.42;;
72422;SDS011;71399;54.146;38.734;2023-07-16T11:57:29;3.85;;;2.50;;
72422;SDS011;71399;54.146;38.734;2023-07-16T11:59:55;5.57;;;2.60;;
72422;SDS011;71399;54.146;38.734;2023-07-16T12:02:22;4.75;;;2.40;;
72422;SDS011;71399;54.146;38.734;2023-07-16T12:04:51;4.97;;;2.58;;
72422;SDS011;71399;54.146;38.734;2023-07-16T12:07:35;4.55;;;2.50;;
72422;SDS011;71399;54.146;38.734;2023-07-16T12:10:03;4.47;;;2.60;;
72422;SDS011;71399;54.146;38.734;2023-07-16T12:12:32;6.85;;;2.92;;
72422;SDS011;71399;54.146;38.734;2023-07-16T12:14:59;3.47;;;2.55;;
72422;SDS011;71399;54.146;38.734;2023-07-16T12:17:26;4.35;;;2.80;;
72422;SDS011;71399;54.146;38.734;2023-07-16T12:19:52;4.75;;;2.75;;
72422;SDS011;71399;54.146;38.734;2023-07-16T12:22:18;4.35;;;2.88;;
72422;SDS011;71399;54.146;38.734;2023-07-16T12:24:44;3.97;;;2.70;;
72422;SDS011;71399;54.146;38.734;2023-07-16T12:27:12;3.92;;;2.53;;
72422;SDS011;71399;54.146;38.734;2023-07-16T12:29:39;4.53;;;2.70;;
72422;SDS011;71399;54.146;38.734;2023-07-16T12:32:05;5.32;;;3.00;;
72422;SDS011;71399;54.146;38.734;2023-07-16T12:34:32;7.28;;;3.08;;
72422;SDS011;71399;54.146;38.734;2023-07-16T12:36:58;4.13;;;2.90;;
72422;SDS011;71399;54.146;38.734;2023-07-16T12:39:24;3.92;;;2.80;;
72422;SDS011;71399;54.146;38.734;2023-07-16T12:41:50;4.20;;;2.80;;
72422;SDS011;71399;54.146;38.734;2023-07-16T12:44:16;4.45;;;2.50;;
72422;SDS011;71399;54.146;38.734;2023-07-16T12:46:42;4.85;;;2.67;;
72422;SDS011;71399;54.146;38.734;2023-07-16T12:49:08;5.28;;;2.53;;
72422;SDS011;71399;54.146;38.734;2023-07-16T12:51:34;4.20;;;2.50;;
72422;SDS011;71399;54.146;38.734;2023-07-16T12:54:01;3.03;;;2.30;;
72422;SDS011;71399;54.146;38.734;2023-07-16T12:56:28;3.72;;;2.60;;
72422;SDS011;71399;54.146;38.734;2023-07-16T12:58:54;6.18;;;2.50;;
72422;SDS011;71399;54.146;38.734;2023-07-16T13:01:20;6.95;;;2.67;;
72422;SDS011;71399;54.146;38.734;2023-07-16T13:03:46;4.45;;;2.65;;
72422;SDS011;71399;54.146;38.734;2023-07-16T13:06:12;5.78;;;2.65;;
72422;SDS011;71399;54.146;38.734;2023-07-16T13:08:38;4.88;;;2.85;;
72422;SDS011;71399;54.146;38.734;2023-07-16T13:11:04;4.28;;;2.80;;
72422;SDS011;71399;54.146;38.734;2023-07-16T13:13:30;6.00;;;2.63;;
72422;SDS011;71399;54.146;38.734;2023-07-16T13:15:57;5.15;;;3.05;;
72422;SDS011;71399;54.146;38.734;2023-07-16T13:18:23;3.40;;;2.60;;
72422;SDS011;71399;54.146;38.734;2023-07-16T13:20:49;3.65;;;2.65;;
72422;SDS011;71399;54.146;38.734;2023-07-16T13:23:15;3.55;;;2.53;;
72422;SDS011;71399;54.146;38.734;2023-07-16T13:25:41;3.50;;;2.50;;
72422;SDS011;71399;54.146;38.734;2023-07-16T13:28:07;5.13;;;2.50;;
72422;SDS011;71399;54.146;38.734;2023-07-16T13:30:34;4.15;;;2.55;;
72422;SDS011;71399;54.146;38.734;2023-07-16T13:33:00;7.20;;;2.75;;
72422;SDS011;71399;54.146;38.734;2023-07-16T13:35:27;4.95;;;2.80;;
72422;SDS011;71399;54.146;38.734;2023-07-16T13:37:53;4.88;;;2.80;;
72422;SDS011;71399;54.146;38.734;2023-07-16T13:40:19;3.72;;;2.67;;
72422;SDS011;71399;54.146;38.734;2023-07-16T13:42:46;4.13;;;2.67;;
72422;SDS011;71399;54.146;38.734;2023-07-16T13:45:13;8.57;;;3.08;;
72422;SDS011;71399;54.146;38.734;2023-07-16T13:47:40;4.78;;;2.95;;
72422;SDS011;71399;54.146;38.734;2023-07-16T13:50:06;5.13;;;2.60;;
72422;SDS011;71399;54.146;38.734;2023-07-16T13:52:33;3.50;;;2.40;;
72422;SDS011;71399;54.146;38.734;2023-07-16T13:54:59;4.15;;;2.25;;
72422;SDS011;71399;54.146;38.734;2023-07-16T13:57:25;3.17;;;1.98;;
72422;SDS011;71399;54.146;38.734;2023-07-16T13:59:52;3.35;;;1.60;;
72422;SDS011;71399;54.146;38.734;2023-07-16T14:02:18;3.30;;;1.90;;
72422;SDS011;71399;54.146;38.734;2023-07-16T14:04:44;5.85;;;2.10;;
72422;SDS011;71399;54.146;38.734;2023-07-16T14:07:10;3.50;;;2.03;;
72422;SDS011;71399;54.146;38.734;2023-07-16T14:09:36;4.60;;;2.50;;
72422;SDS011;71399;54.146;38.734;2023-07-16T14:12:03;4.93;;;2.30;;
72422;SDS011;71399;54.146;38.734;2023-07-16T14:14:29;3.28;;;2.25;;
72422;SDS011;71399;54.146;38.734;2023-07-16T14:16:55;3.10;;;2.10;;
72422;SDS011;71399;54.146;38.734;2023-07-16T14:19:21;5.28;;;2.03;;
72422;SDS011;71399;54.146;38.734;2023-07-16T14:21:47;2.95;;;2.22;;
72422;SDS011;71399;54.146;38.734;2023-07-16T14:24:13;4.50;;;2.38;;
72422;SDS011;71399;54.146;38.734;2023-07-16T14:26:39;8.65;;;2.60;;
72422;SDS011;71399;54.146;38.734;2023-07-16T14:29:05;4.32;;;2.28;;
72422;SDS011;71399;54.146;38.734;2023-07-16T14:31:32;3.78;;;2.05;;
72422;SDS011;71399;54.146;38.734;2023-07-16T14:33:58;3.58;;;2.40;;
72422;SDS011;71399;54.146;38.734;2023-07-16T14:36:24;3.40;;;2.22;;
72422;SDS011;71399;54.146;38.734;2023-07-16T14:38:50;5.60;;;2.72;;
72422;SDS011;71399;54.146;38.734;2023-07-16T14:41:16;3.60;;;2.40;;
72422;SDS011;71399;54.146;38.734;2023-07-16T14:43:42;3.22;;;2.30;;